Time;durP1;ratioP1;P1;durP2;ratioP2;P2;SDS_P1;SDS_P2;PMS_P1;PMS_P2;Temp;Humidity;BMP_temperature;BMP_pressure;BME280_temperature;BME280_humidity;BME280_pressure;Samples;Min_cycle;Max_cycle;Signal;HPM_P1;HPM_P2
2023/10/22 00:01:53;;;;;;;1.23;1.00;;;;;;;12.80;99.92;99512.59;5107034;28;20040;-68
2023/10/22 00:04:19;;;;;;;2.00;0.98;;;;;;;12.74;100.00;99514.19;5111317;28;20096;-68
2023/10/22 00:06:51;;;;;;;0.90;0.90;;;;;;;12.76;100.00;99511.06;5108991;28;20101;-69
2023/10/22 00:09:16;;;;;;;;;;;;;;;12.80;100.00;99514.53;5110329;28;20039;-69
2023/10/22 00:11:42;;;;;;;1.52;0.90;;;;;;;12.78;99.14;99519.56;5092869;28;19912;-68
2023/10/22 00:14:07;;;;;;;0.70;0.70;;;;;;;12.78;99.64;99512.22;5108173;28;20047;-68
2023/10/22 00:16:33;;;;;;;1.63;0.90;;;;;;;12.76;99.06;99519.19;5076483;28;20035;-68
2023/10/22 00:18:58;;;;;;;2.70;0.90;;;;;;;12.64;100.00;99512.31;5111364;28;20066;-68
2023/10/22 00:21:23;;;;;;;0.55;0.40;;;;;;;12.62;100.00;99512.72;5092500;28;20072;-68
2023/10/22 00:23:49;;;;;;;1.20;0.82;;;;;;;12.73;100.00;99506.47;5104550;28;20032;-68
2023/10/22 00:26:14;;;;;;;1.08;0.80;;;;;;;12.71;100.00;99515.00;5091830;28;20080;-68
2023/10/22 00:28:40;;;;;;;0.85;0.73;;;;;;;12.80;100.00;99515.31;5109583;28;20518;-68
2023/10/22 00:31:06;;;;;;;1.23;0.73;;;;;;;12.79;100.00;99513.78;5091119;28;20032;-68
2023/10/22 00:33:31;;;;;;;1.42;1.00;;;;;;;12.88;99.98;99511.38;5091308;28;20448;-68
2023/10/22 00:35:58;;;;;;;1.40;0.90;;;;;;;12.88;99.36;99505.22;5092896;28;20143;-68
2023/10/22 00:38:25;;;;;;;0.65;0.65;;;;;;;12.87;99.72;99517.19;5075820;28;20080;-69
2023/10/22 00:40:50;;;;;;;1.42;1.33;;;;;;;12.87;98.56;99509.88;5106404;28;20086;-68
2023/10/22 00:43:16;;;;;;;1.13;0.70;;;;;;;12.68;99.73;99513.06;5108996;28;20055;-68
2023/10/22 00:45:43;;;;;;;1.60;0.95;;;;;;;12.69;100.00;99512.69;5093042;28;20024;-68
2023/10/22 00:48:10;;;;;;;0.55;0.55;;;;;;;12.74;99.47;99505.34;5092773;28;20028;-68
2023/10/22 00:50:39;;;;;;;1.45;0.90;;;;;;;12.74;99.45;99513.44;5089855;28;20027;-68
2023/10/22 00:53:06;;;;;;;1.35;0.90;;;;;;;12.79;99.16;99515.69;5110616;28;20043;-68
2023/10/22 00:55:34;;;;;;;1.45;0.98;;;;;;;12.80;98.83;99511.81;5092141;28;20028;-68
2023/10/22 00:58:00;;;;;;;1.33;0.90;;;;;;;12.75;99.03;99521.13;5107406;28;20039;-70
2023/10/22 01:00:26;;;;;;;1.27;1.05;;;;;;;12.73;98.65;99514.59;5106273;28;20324;-67
2023/10/22 01:02:52;;;;;;;1.63;0.82;;;;;;;12.73;99.69;99514.59;5091019;28;20024;-68
2023/10/22 01:05:20;;;;;;;1.05;0.80;;;;;;;12.67;99.52;99515.03;5107336;28;20518;-68
2023/10/22 01:07:47;;;;;;;0.80;0.65;;;;;;;12.66;99.84;99508.06;5109111;28;20480;-68
2023/10/22 01:10:13;;;;;;;1.73;0.90;;;;;;;12.78;99.10;99516.84;5090677;28;20051;-68
2023/10/22 01:12:40;;;;;;;1.27;0.90;;;;;;;12.52;99.27;99518.22;5090232;28;20411;-68
2023/10/22 01:15:06;;;;;;;1.75;1.23;;;;;;;12.44;100.00;99505.91;5109418;28;20028;-68
2023/10/22 01:17:35;;;;;;;0.90;0.60;;;;;;;12.54;100.00;99508.53;5093724;28;20545;-68
2023/10/22 01:20:00;;;;;;;5.78;1.00;;;;;;;12.66;99.67;99504.59;5087342;28;20185;-69
2023/10/22 01:22:26;;;;;;;1.20;1.02;;;;;;;12.69;99.04;99515.41;5111662;28;20118;-68
2023/10/22 01:24:51;;;;;;;1.00;0.80;;;;;;;12.73;98.64;99506.47;5107703;28;20604;-68
2023/10/22 01:27:17;;;;;;;1.02;0.80;;;;;;;12.41;99.81;99504.75;5077623;28;20503;-68
2023/10/22 01:29:43;;;;;;;2.55;1.02;;;;;;;12.59;99.63;99502.72;5097262;28;20077;-67
2023/10/22 01:32:09;;;;;;;1.42;1.08;;;;;;;12.66;99.50;99505.38;5112569;28;20020;-68
2023/10/22 01:34:34;;;;;;;1.00;0.63;;;;;;;12.69;98.99;99504.59;5095930;28;20678;-68
2023/10/22 01:37:00;;;;;;;2.83;1.00;;;;;;;12.76;98.46;99509.16;5076655;28;20404;-68
2023/10/22 01:39:28;;;;;;;2.97;1.25;;;;;;;12.59;98.53;99510.03;5111142;28;20035;-67
2023/10/22 01:41:53;;;;;;;0.88;0.80;;;;;;;12.78;97.79;99516.84;5093184;28;20429;-67
2023/10/22 01:44:18;;;;;;;0.65;0.65;;;;;;;12.75;98.20;99507.63;5095673;28;20028;-67
2023/10/22 01:46:44;;;;;;;0.75;0.75;;;;;;;12.83;97.82;99511.03;5114213;28;20034;-67
2023/10/22 01:49:10;;;;;;;2.25;1.02;;;;;;;12.63;98.34;99510.78;5095933;28;20382;-67
2023/10/22 01:51:35;;;;;;;1.45;1.00;;;;;;;12.77;97.99;99509.94;5092613;28;20050;-68
2023/10/22 01:54:01;;;;;;;2.22;1.10;;;;;;;12.61;98.51;99513.91;5114254;28;20028;-68
2023/10/22 01:56:26;;;;;;;2.40;0.68;;;;;;;12.53;98.29;99517.81;5111161;28;20061;-67
2023/10/22 01:58:52;;;;;;;1.60;1.08;;;;;;;12.46;98.81;99512.47;5096075;28;20024;-68
2023/10/22 02:01:18;;;;;;;1.17;1.08;;;;;;;12.67;98.71;99506.91;5094248;28;20031;-67
2023/10/22 02:03:45;;;;;;;5.25;1.15;;;;;;;12.71;97.77;99504.19;5096032;28;20472;-67
2023/10/22 02:06:14;;;;;;;2.00;1.13;;;;;;;12.69;98.11;99504.59;5114306;28;20106;-67
2023/10/22 02:08:45;;;;;;;4.05;1.33;;;;;;;12.73;97.59;99503.78;5078839;28;20678;-67
2023/10/22 02:11:11;;;;;;;4.03;0.80;;;;;;;12.70;97.15;99500.72;5093896;28;20495;-68
2023/10/22 02:13:36;;;;;;;3.45;1.05;;;;;;;12.79;96.87;99499.50;5095683;28;20110;-67
2023/10/22 02:16:02;;;;;;;2.05;0.90;;;;;;;12.81;96.77;99505.28;5095564;28;20035;-68
2023/10/22 02:18:30;;;;;;;2.28;1.70;;;;;;;12.81;96.65;99502.56;5112120;28;20043;-67
2023/10/22 02:20:59;;;;;;;1.42;0.82;;;;;;;12.67;97.24;99490.72;5078311;28;20031;-67
2023/10/22 02:23:25;;;;;;;1.40;0.98;;;;;;;12.74;96.26;99491.81;5112362;28;20035;-67
2023/10/22 02:25:51;;;;;;;1.23;0.93;;;;;;;12.73;96.90;99492.97;5094719;28;20039;-67
2023/10/22 02:28:17;;;;;;;1.73;0.98;;;;;;;12.77;96.23;99491.03;5095176;28;20053;-67
2023/10/22 02:30:44;;;;;;;1.40;0.95;;;;;;;12.75;96.69;99494.13;5072312;28;20063;-67
2023/10/22 02:33:13;;;;;;;2.42;1.00;;;;;;;12.76;96.57;99497.56;5113834;28;20507;-67
2023/10/22 02:35:42;;;;;;;1.25;0.85;;;;;;;12.70;96.66;99492.59;5095527;28;20024;-67
2023/10/22 02:38:09;;;;;;;4.53;1.08;;;;;;;12.66;96.47;99493.78;5094697;28;20083;-67
2023/10/22 02:40:35;;;;;;;1.13;0.82;;;;;;;12.66;97.03;99499.97;5109987;28;20042;-68
2023/10/22 02:43:02;;;;;;;1.83;0.77;;;;;;;12.69;97.42;99495.72;5112081;28;20499;-67
2023/10/22 02:45:28;;;;;;;3.80;1.15;;;;;;;12.68;96.56;99502.25;5110335;28;20369;-67
2023/10/22 02:47:53;;;;;;;1.63;0.88;;;;;;;12.72;95.71;99491.44;5075192;28;20032;-67
2023/10/22 02:50:18;;;;;;;1.58;1.25;;;;;;;12.72;96.23;99502.25;5092441;28;20042;-67
2023/10/22 02:52:44;;;;;;;0.77;0.77;;;;;;;12.72;95.92;99510.38;5090383;28;20039;-67
2023/10/22 02:55:09;;;;;;;1.23;0.80;;;;;;;12.75;95.72;99496.06;5094548;28;20019;-67
2023/10/22 02:57:35;;;;;;;0.65;0.63;;;;;;;12.81;95.65;99510.66;5094326;28;20039;-67
2023/10/22 03:00:00;;;;;;;1.88;0.80;;;;;;;12.77;95.55;99496.41;5093247;28;20040;-67
2023/10/22 03:02:26;;;;;;;2.35;1.00;;;;;;;12.68;95.30;99502.25;5094773;28;20076;-68
2023/10/22 03:04:54;;;;;;;1.60;1.42;;;;;;;12.69;96.09;99507.28;5095068;28;20024;-67
2023/10/22 03:07:19;;;;;;;1.55;1.10;;;;;;;12.74;95.24;99510.75;5113004;28;20030;-67
2023/10/22 03:09:45;;;;;;;0.65;0.55;;;;;;;12.63;96.07;99511.56;5077179;28;20036;-67
2023/10/22 03:12:11;;;;;;;1.63;1.23;;;;;;;12.66;95.87;99520.78;5112946;28;20449;-67
2023/10/22 03:14:37;;;;;;;0.90;0.90;;;;;;;12.60;95.68;99517.75;5112620;28;20084;-67
2023/10/22 03:17:03;;;;;;;1.73;0.77;;;;;;;12.63;96.02;99519.69;5093779;28;20035;-67
2023/10/22 03:19:28;;;;;;;5.03;0.90;;;;;;;12.62;94.99;99517.34;5092363;28;20063;-67
2023/10/22 03:21:54;;;;;;;1.45;0.98;;;;;;;12.70;95.10;99513.44;5112180;28;20042;-67
2023/10/22 03:24:22;;;;;;;0.73;0.73;;;;;;;12.58;96.00;99520.06;5092719;28;20027;-67
2023/10/22 03:26:48;;;;;;;1.02;0.88;;;;;;;12.60;95.68;99528.56;5112591;28;20492;-67
2023/10/22 03:29:19;;;;;;;1.30;0.90;;;;;;;12.61;95.72;99519.31;5093031;28;20039;-67
2023/10/22 03:31:45;;;;;;;3.13;1.50;;;;;;;12.49;96.22;99529.78;5094105;28;20496;-67
2023/10/22 03:34:11;;;;;;;0.77;0.60;;;;;;;12.41;96.35;99518.25;5112440;28;20023;-67
2023/10/22 03:36:37;;;;;;;2.63;0.60;;;;;;;12.56;96.15;99522.41;5113115;28;20031;-67
2023/10/22 03:39:03;;;;;;;1.33;1.23;;;;;;;12.54;95.03;99519.31;5107639;28;20621;-67
2023/10/22 03:41:28;;;;;;;0.93;0.85;;;;;;;12.54;96.06;99524.72;5111491;28;20103;-67
2023/10/22 03:43:53;;;;;;;1.13;0.90;;;;;;;12.61;95.69;99524.69;5112475;28;20039;-67
2023/10/22 03:46:19;;;;;;;3.28;0.90;;;;;;;12.59;95.73;99516.22;5093496;28;20024;-67
2023/10/22 03:48:45;;;;;;;0.70;0.70;;;;;;;12.59;95.93;99527.03;5093521;28;20035;-67
2023/10/22 03:51:10;;;;;;;1.83;1.20;;;;;;;12.60;94.80;99528.56;5108479;28;20022;-67
2023/10/22 03:53:36;;;;;;;1.17;0.73;;;;;;;12.55;95.00;99520.09;5111852;28;20028;-67
2023/10/22 03:56:02;;;;;;;1.17;0.77;;;;;;;12.51;95.64;99512.03;5092614;28;20036;-68
2023/10/22 03:58:27;;;;;;;0.90;0.65;;;;;;;12.40;96.25;99514.03;5111869;28;20047;-67
2023/10/22 04:00:59;;;;;;;5.00;0.98;;;;;;;12.47;95.85;99518.59;5109619;28;20099;-67
2023/10/22 04:03:24;;;;;;;2.40;0.70;;;;;;;12.50;96.12;99523.97;5093288;28;20047;-67
2023/10/22 04:05:55;;;;;;;3.08;0.90;;;;;;;12.49;95.44;99519.75;5106810;28;20043;-67
2023/10/22 04:08:22;;;;;;;1.52;1.10;;;;;;;12.58;94.97;99508.53;5109539;28;20054;-67
2023/10/22 04:10:48;;;;;;;0.77;0.68;;;;;;;12.43;94.96;99513.22;5110291;28;20063;-67
2023/10/22 04:13:13;;;;;;;2.13;0.95;;;;;;;12.60;95.18;99508.91;5093817;28;20047;-67
2023/10/22 04:15:41;;;;;;;1.55;0.80;;;;;;;12.60;94.83;99511.59;5092930;28;20066;-67
2023/10/22 04:18:07;;;;;;;3.28;0.80;;;;;;;12.59;94.34;99518.16;5104862;28;20170;-67
2023/10/22 04:20:33;;;;;;;0.85;0.73;;;;;;;12.64;94.35;99515.03;5088822;28;20040;-67
2023/10/22 04:22:59;;;;;;;1.63;0.93;;;;;;;12.54;94.30;99522.03;5107817;28;20036;-67
2023/10/22 04:25:25;;;;;;;2.28;0.70;;;;;;;12.40;94.50;99524.84;5092240;28;20440;-68
2023/10/22 04:27:51;;;;;;;0.80;0.70;;;;;;;12.43;94.85;99525.97;5109673;28;20104;-67
2023/10/22 04:30:16;;;;;;;1.45;1.02;;;;;;;12.51;94.81;99536.34;5111009;28;20031;-68
2023/10/22 04:32:42;;;;;;;2.03;1.02;;;;;;;12.56;94.46;99527.06;5108455;28;20434;-68
2023/10/22 04:35:07;;;;;;;3.13;0.80;;;;;;;12.57;94.20;99533.97;5111311;28;20027;-68
2023/10/22 04:37:33;;;;;;;0.60;0.50;;;;;;;12.31;94.97;99537.22;5111321;28;20095;-68
2023/10/22 04:39:58;;;;;;;0.73;0.73;;;;;;;12.41;94.55;99541.78;5108523;28;20060;-68
2023/10/22 04:42:25;;;;;;;1.95;0.93;;;;;;;12.46;94.60;99539.47;5090172;28;20039;-68
2023/10/22 04:44:50;;;;;;;2.13;0.68;;;;;;;12.46;94.60;99535.97;5110624;28;20039;-68
2023/10/22 04:47:16;;;;;;;0.88;0.80;;;;;;;12.43;94.85;99531.34;5090243;28;20520;-68
2023/10/22 04:49:47;;;;;;;1.48;0.80;;;;;;;12.48;94.26;99541.75;5110961;28;20050;-69
2023/10/22 04:52:22;;;;;;;1.52;0.75;;;;;;;12.36;94.90;99537.59;5090745;28;20046;-68
2023/10/22 04:54:49;;;;;;;0.70;0.70;;;;;;;12.43;94.38;99544.84;5092490;28;20027;-68
2023/10/22 04:57:14;;;;;;;1.30;0.82;;;;;;;12.43;94.41;99542.94;5092355;28;20605;-68
2023/10/22 04:59:40;;;;;;;0.70;0.70;;;;;;;12.52;93.98;99535.16;5108296;28;20102;-68
2023/10/22 05:02:08;;;;;;;0.90;0.73;;;;;;;12.43;94.09;99534.06;5108660;28;20035;-68
2023/10/22 05:04:33;;;;;;;0.65;0.65;;;;;;;12.44;94.49;99536.38;5091886;28;20027;-68
2023/10/22 05:06:59;;;;;;;0.68;0.60;;;;;;;12.29;94.89;99534.91;5110709;28;20115;-68
2023/10/22 05:09:24;;;;;;;0.50;0.50;;;;;;;12.29;95.11;99544.94;5089505;28;20047;-68
2023/10/22 05:11:50;;;;;;;1.02;0.93;;;;;;;12.42;94.46;99552.22;5110944;28;20032;-68
2023/10/22 05:14:15;;;;;;;6.53;1.10;;;;;;;12.36;94.11;99551.09;5110802;28;20031;-68
2023/10/22 05:16:41;;;;;;;3.08;0.47;;;;;;;12.42;94.19;99554.13;5092245;28;20100;-68
2023/10/22 05:19:08;;;;;;;2.25;0.90;;;;;;;12.36;94.31;99553.00;5092081;28;20027;-68
2023/10/22 05:21:34;;;;;;;0.88;0.68;;;;;;;12.41;94.16;99557.97;5092560;28;20096;-68
2023/10/22 05:23:59;;;;;;;0.75;0.73;;;;;;;12.34;94.23;99563.44;5090869;28;20036;-68
2023/10/22 05:26:25;;;;;;;0.82;0.65;;;;;;;12.35;93.88;99560.31;5109834;28;20076;-68
2023/10/22 05:28:50;;;;;;;0.60;0.50;;;;;;;12.32;94.26;99563.81;5110751;28;20039;-68
2023/10/22 05:31:18;;;;;;;3.85;0.90;;;;;;;12.22;93.91;99569.25;5110384;28;20050;-68
2023/10/22 05:33:44;;;;;;;0.70;0.70;;;;;;;12.36;94.37;99564.56;5091997;28;20016;-68
2023/10/22 05:36:22;;;;;;;1.13;0.80;;;;;;;12.29;94.29;99572.69;5092006;28;20054;-68
2023/10/22 05:38:48;;;;;;;1.65;0.90;;;;;;;12.37;94.36;99579.59;5110493;28;20112;-68
2023/10/22 05:41:21;;;;;;;2.08;1.20;;;;;;;12.35;93.65;99581.94;5109931;28;20103;-67
2023/10/22 05:43:48;;;;;;;1.80;0.68;;;;;;;12.25;93.65;99577.34;5092462;28;20096;-67
2023/10/22 05:46:14;;;;;;;1.65;1.00;;;;;;;12.03;95.33;99586.69;5104878;28;20131;-67
2023/10/22 05:48:40;;;;;;;1.20;0.63;;;;;;;12.12;95.24;99583.56;5110737;28;20539;-67
2023/10/22 05:51:05;;;;;;;1.10;0.70;;;;;;;12.18;95.19;99598.97;5105414;28;20122;-67
2023/10/22 05:53:30;;;;;;;0.75;0.52;;;;;;;12.29;94.76;99593.53;5106847;28;20126;-67
2023/10/22 05:55:57;;;;;;;2.67;0.65;;;;;;;12.25;94.11;99604.34;5110318;28;20022;-68
2023/10/22 05:58:23;;;;;;;1.65;0.80;;;;;;;12.16;94.86;99601.28;5110636;28;20040;-67
2023/10/22 06:00:49;;;;;;;1.33;0.88;;;;;;;12.12;95.37;99608.63;5100847;28;20032;-67
2023/10/22 06:03:14;;;;;;;2.10;1.30;;;;;;;12.24;94.86;99608.19;5105032;28;20100;-68
2023/10/22 06:05:40;;;;;;;0.65;0.60;;;;;;;12.29;93.85;99605.09;5110440;28;20031;-67
2023/10/22 06:08:05;;;;;;;1.38;0.80;;;;;;;12.34;93.88;99614.72;5110434;28;20031;-68
2023/10/22 06:10:31;;;;;;;1.08;0.75;;;;;;;12.25;93.22;99612.44;5089104;28;20039;-67
2023/10/22 06:12:59;;;;;;;0.73;0.50;;;;;;;12.26;93.73;99621.31;5092433;28;20126;-67
2023/10/22 06:15:25;;;;;;;1.15;0.80;;;;;;;12.19;94.46;99624.81;5095437;28;20118;-67
2023/10/22 06:17:50;;;;;;;1.23;0.80;;;;;;;12.12;94.66;99624.03;5113882;28;20107;-67
2023/10/22 06:20:16;;;;;;;3.17;0.82;;;;;;;12.12;95.05;99626.75;5093627;28;20088;-67
2023/10/22 06:22:44;;;;;;;1.10;0.80;;;;;;;12.15;94.53;99621.34;5111245;28;20513;-68
2023/10/22 06:25:10;;;;;;;2.22;0.80;;;;;;;12.15;94.70;99634.06;5109974;28;20103;-67
2023/10/22 06:27:36;;;;;;;0.65;0.65;;;;;;;12.14;95.23;99633.28;5095132;28;20038;-67
2023/10/22 06:30:01;;;;;;;0.85;0.65;;;;;;;12.20;95.18;99650.63;5094962;28;20036;-68
2023/10/22 06:32:27;;;;;;;2.90;1.02;;;;;;;12.24;94.81;99642.50;5112703;28;20448;-68
2023/10/22 06:34:52;;;;;;;1.02;0.73;;;;;;;12.34;94.11;99645.19;5111391;28;20053;-67
2023/10/22 06:37:18;;;;;;;0.57;0.57;;;;;;;12.35;93.88;99640.56;5095275;28;20080;-68
2023/10/22 06:39:43;;;;;;;3.63;0.68;;;;;;;12.31;93.63;99656.75;5113064;28;20034;-67
2023/10/22 06:42:08;;;;;;;3.20;0.90;;;;;;;12.24;94.04;99656.00;5094308;28;20110;-68
2023/10/22 06:44:34;;;;;;;1.17;0.75;;;;;;;12.29;93.90;99659.06;5112720;28;20122;-67
2023/10/22 06:46:59;;;;;;;0.50;0.50;;;;;;;12.32;94.63;99657.53;5113048;28;20043;-67
2023/10/22 06:49:25;;;;;;;1.17;0.70;;;;;;;12.33;94.53;99657.13;5112619;28;20027;-67
2023/10/22 06:51:53;;;;;;;1.33;0.63;;;;;;;12.27;94.65;99658.69;5110839;28;20521;-67
2023/10/22 06:54:19;;;;;;;1.33;0.60;;;;;;;12.19;95.82;99659.91;5112620;28;20480;-67
2023/10/22 06:56:44;;;;;;;1.60;1.25;;;;;;;12.43;94.58;99660.97;5113152;28;20035;-67
2023/10/22 06:59:10;;;;;;;0.60;0.55;;;;;;;12.40;94.88;99653.66;5094465;28;20026;-68
2023/10/22 07:01:35;;;;;;;2.08;1.40;;;;;;;12.34;94.06;99660.63;5111615;28;20146;-68
2023/10/22 07:04:00;;;;;;;0.45;0.45;;;;;;;12.48;93.85;99652.47;5113345;28;20106;-67
2023/10/22 07:06:26;;;;;;;0.90;0.60;;;;;;;12.55;94.41;99661.31;5112843;28;20515;-67
2023/10/22 07:08:51;;;;;;;0.68;0.68;;;;;;;12.43;94.40;99661.75;5112555;28;20035;-68
2023/10/22 07:11:20;;;;;;;1.35;0.60;;;;;;;12.49;94.34;99657.47;5112133;28;20015;-67
2023/10/22 07:13:45;;;;;;;1.90;0.60;;;;;;;12.66;93.12;99659.34;5093637;28;20093;-68
2023/10/22 07:16:10;;;;;;;1.27;0.70;;;;;;;12.73;92.98;99668.56;5094842;28;20114;-67
2023/10/22 07:18:36;;;;;;;4.28;0.70;;;;;;;12.83;92.93;99670.47;5091314;28;20043;-67
2023/10/22 07:21:01;;;;;;;0.55;0.40;;;;;;;12.77;93.26;99672.03;5111835;28;20499;-68
2023/10/22 07:23:31;;;;;;;1.80;0.88;;;;;;;12.92;92.52;99665.38;5106338;28;20516;-67
2023/10/22 07:25:56;;;;;;;0.98;0.82;;;;;;;12.92;92.38;99662.69;5112266;28;20040;-67
2023/10/22 07:28:22;;;;;;;3.65;0.60;;;;;;;12.96;92.71;99663.44;5112031;28;20089;-67
2023/10/22 07:30:48;;;;;;;1.17;0.45;;;;;;;13.11;93.09;99673.03;5093942;28;20015;-67
2023/10/22 07:33:15;;;;;;;0.85;0.63;;;;;;;13.25;92.47;99673.72;5092600;28;20488;-67
2023/10/22 07:35:51;;;;;;;1.00;0.80;;;;;;;13.27;93.25;99665.97;5112581;28;20023;-67
2023/10/22 07:38:17;;;;;;;1.17;0.63;;;;;;;13.51;91.23;99672.38;5112536;28;20036;-67
2023/10/22 07:40:42;;;;;;;3.58;0.80;;;;;;;13.63;90.27;99666.47;5108541;28;20031;-67
2023/10/22 07:43:08;;;;;;;0.45;0.45;;;;;;;13.70;89.83;99679.19;5112319;28;20027;-68
2023/10/22 07:45:38;;;;;;;1.73;0.70;;;;;;;13.69;89.79;99673.00;5112177;28;20023;-67
2023/10/22 07:48:03;;;;;;;0.77;0.50;;;;;;;13.75;88.50;99673.31;5112525;28;20103;-67
2023/10/22 07:50:29;;;;;;;0.98;0.57;;;;;;;13.69;88.53;99667.59;5075773;28;20482;-67
2023/10/22 07:52:54;;;;;;;0.63;0.50;;;;;;;13.73;89.67;99672.97;5110214;28;20031;-67
2023/10/22 07:55:20;;;;;;;1.17;0.90;;;;;;;13.51;89.79;99677.78;5111516;28;20404;-67
2023/10/22 07:57:45;;;;;;;2.35;0.65;;;;;;;13.63;89.73;99680.00;5093755;28;20123;-67
2023/10/22 08:00:11;;;;;;;5.15;0.60;;;;;;;13.77;89.64;99679.88;5110272;28;20031;-69
2023/10/22 08:02:40;;;;;;;3.95;0.88;;;;;;;13.80;89.81;99672.91;5092045;28;20115;-67
2023/10/22 08:05:05;;;;;;;0.95;0.50;;;;;;;13.97;90.46;99677.41;5110889;28;20111;-67
2023/10/22 08:07:31;;;;;;;0.88;0.77;;;;;;;14.24;90.05;99683.69;5111405;28;20464;-67
2023/10/22 08:09:56;;;;;;;4.57;0.82;;;;;;;14.41;88.44;99680.84;5110438;28;20118;-67
2023/10/22 08:12:22;;;;;;;0.98;0.63;;;;;;;14.27;88.63;99686.41;5092923;28;20054;-67
2023/10/22 08:14:49;;;;;;;2.47;0.70;;;;;;;14.10;88.43;99687.31;5093222;28;20084;-67
2023/10/22 08:17:14;;;;;;;0.50;0.43;;;;;;;14.45;88.79;99686.97;5111584;28;20116;-67
2023/10/22 08:19:40;;;;;;;1.33;1.00;;;;;;;14.55;87.56;99692.69;5110047;28;20512;-67
2023/10/22 08:22:05;;;;;;;4.22;0.55;;;;;;;14.39;87.48;99694.00;5092488;28;20026;-67
2023/10/22 08:24:31;;;;;;;0.60;0.60;;;;;;;14.60;87.69;99703.84;5108054;28;20031;-67
2023/10/22 08:26:59;;;;;;;5.30;0.90;;;;;;;14.75;88.09;99701.75;5092183;28;20040;-67
2023/10/22 08:29:25;;;;;;;1.73;0.73;;;;;;;14.88;86.16;99698.09;5109356;28;20039;-67
2023/10/22 08:31:50;;;;;;;0.63;0.47;;;;;;;14.78;86.03;99704.41;5106366;28;20023;-67
2023/10/22 08:34:16;;;;;;;0.70;0.52;;;;;;;14.77;86.91;99705.56;5110158;28;20059;-67
2023/10/22 08:36:41;;;;;;;0.82;0.40;;;;;;;14.69;87.66;99706.06;5090938;28;20069;-68
2023/10/22 08:39:08;;;;;;;0.90;0.57;;;;;;;14.73;86.68;99704.84;5091912;28;20031;-67
2023/10/22 08:41:43;;;;;;;1.00;0.40;;;;;;;14.76;86.98;99700.56;5110342;28;20042;-68
2023/10/22 08:44:12;;;;;;;1.63;0.50;;;;;;;14.70;87.88;99707.59;5106294;27;20036;-68
2023/10/22 08:46:38;;;;;;;0.50;0.50;;;;;;;14.79;87.70;99699.75;5109838;27;20102;-68
2023/10/22 08:49:07;;;;;;;2.53;0.82;;;;;;;14.70;88.56;99713.00;5090686;28;20036;-69
2023/10/22 08:51:33;;;;;;;1.00;0.47;;;;;;;14.93;87.91;99713.88;5106211;28;20510;-68
2023/10/22 08:54:00;;;;;;;1.98;0.50;;;;;;;14.82;87.43;99710.56;5091574;28;20411;-68
2023/10/22 08:56:30;;;;;;;0.60;0.38;;;;;;;15.01;88.02;99711.84;5091769;28;20036;-68
2023/10/22 08:59:03;;;;;;;1.85;0.50;;;;;;;15.04;86.57;99724.63;5084739;28;20066;-68
2023/10/22 09:01:31;;;;;;;1.17;0.40;;;;;;;15.16;86.78;99718.63;5111769;28;20150;-68
2023/10/22 09:03:57;;;;;;;2.08;0.47;;;;;;;15.20;86.43;99720.13;5105160;28;20071;-67
2023/10/22 09:06:23;;;;;;;0.80;0.57;;;;;;;15.34;85.76;99724.56;5111634;28;20067;-68
2023/10/22 09:08:49;;;;;;;2.00;0.47;;;;;;;15.33;86.67;99726.50;5087508;28;20032;-68
2023/10/22 09:11:16;;;;;;;1.38;0.82;;;;;;;15.37;85.99;99726.47;5104828;28;20126;-68
2023/10/22 09:13:43;;;;;;;2.17;0.90;;;;;;;15.37;86.13;99729.94;5111826;28;20470;-68
2023/10/22 09:16:09;;;;;;;1.95;0.50;;;;;;;15.36;86.25;99733.84;5090831;28;21110;-68
2023/10/22 09:18:47;;;;;;;0.45;0.40;;;;;;;15.29;85.70;99728.50;5109541;28;20036;-67
2023/10/22 09:21:13;;;;;;;1.10;0.63;;;;;;;15.46;86.33;99732.19;5103807;28;20050;-68
2023/10/22 09:23:38;;;;;;;1.85;0.65;;;;;;;15.58;86.31;99734.31;5107839;28;20036;-68
2023/10/22 09:26:04;;;;;;;6.55;0.77;;;;;;;15.70;85.73;99738.44;5109398;28;20606;-68
2023/10/22 09:28:30;;;;;;;1.50;0.65;;;;;;;15.69;85.76;99734.16;5107328;28;20032;-67
2023/10/22 09:31:00;;;;;;;0.70;0.70;;;;;;;15.74;86.20;99739.88;5087119;28;20039;-69
2023/10/22 09:33:44;;;;;;;1.05;0.70;;;;;;;15.69;86.62;99743.09;5108671;28;20036;-67
2023/10/22 09:36:11;;;;;;;1.38;0.63;;;;;;;15.62;86.90;99740.47;5086917;28;20123;-68
2023/10/22 09:38:50;;;;;;;0.60;0.60;;;;;;;15.54;87.17;99744.47;5106778;28;20514;-67
2023/10/22 09:41:30;;;;;;;1.23;0.55;;;;;;;15.39;89.51;99751.22;5106490;28;20072;-67
2023/10/22 09:44:00;;;;;;;1.23;0.60;;;;;;;15.51;89.69;99750.72;5107918;28;20069;-67
2023/10/22 09:46:33;;;;;;;1.63;0.45;;;;;;;15.56;90.58;99750.28;5090306;28;20039;-67
2023/10/22 09:49:03;;;;;;;2.58;0.73;;;;;;;15.66;89.98;99746.59;5093813;28;20019;-69
2023/10/22 09:51:34;;;;;;;1.42;0.90;;;;;;;15.68;89.98;99749.69;5111132;27;20073;-67
2023/10/22 09:54:05;;;;;;;0.65;0.65;;;;;;;15.71;90.06;99753.53;5109919;27;20185;-68
2023/10/22 09:56:32;;;;;;;0.52;0.50;;;;;;;15.65;90.63;99755.16;5112737;27;20514;-68
2023/10/22 09:59:07;;;;;;;0.73;0.60;;;;;;;15.48;92.22;99761.63;5107296;27;20032;-68
2023/10/22 10:01:37;;;;;;;1.52;0.90;;;;;;;15.49;92.32;99769.34;5106851;28;20114;-68
2023/10/22 10:04:05;;;;;;;4.03;0.70;;;;;;;15.47;92.17;99760.06;5092625;27;20518;-68
2023/10/22 10:06:31;;;;;;;3.30;0.77;;;;;;;15.28;93.60;99761.47;5092658;27;20023;-68
2023/10/22 10:08:59;;;;;;;1.23;1.10;;;;;;;15.22;94.01;99771.25;5108639;27;20034;-68
2023/10/22 10:11:26;;;;;;;1.02;0.70;;;;;;;15.21;94.22;99773.19;5093382;28;20047;-68
2023/10/22 10:13:52;;;;;;;1.02;0.73;;;;;;;15.19;94.98;99772.06;5108904;27;20054;-68
2023/10/22 10:16:23;;;;;;;1.90;1.38;;;;;;;15.17;95.34;99763.56;5109878;27;20019;-68
2023/10/22 10:19:08;;;;;;;3.77;1.73;;;;;;;15.08;95.32;99771.41;5109167;27;20036;-68
2023/10/22 10:21:35;;;;;;;1.52;1.08;;;;;;;15.01;96.29;99771.50;5110908;27;20314;-68
2023/10/22 10:24:20;;;;;;;1.33;0.85;;;;;;;15.01;97.51;99764.16;5091710;28;20808;-68
2023/10/22 10:26:47;;;;;;;0.77;0.77;;;;;;;14.92;97.32;99780.16;5107886;27;20051;-68
2023/10/22 10:29:20;;;;;;;4.63;1.20;;;;;;;15.01;97.15;99783.13;5090549;28;20035;-68
2023/10/22 10:31:51;;;;;;;2.65;0.80;;;;;;;15.02;97.31;99786.63;5106772;27;20118;-68
2023/10/22 10:34:39;;;;;;;2.42;1.20;;;;;;;14.86;98.37;99781.00;5105942;28;20115;-69
2023/10/22 10:37:18;;;;;;;1.17;0.80;;;;;;;14.93;98.39;99800.66;5072604;28;20108;-68
2023/10/22 10:39:47;;;;;;;1.13;0.80;;;;;;;14.80;98.30;99790.72;5108552;28;20071;-68
2023/10/22 10:42:14;;;;;;;3.70;1.02;;;;;;;14.85;99.04;99790.28;5088640;28;20089;-68
2023/10/22 10:44:58;;;;;;;1.52;0.90;;;;;;;14.99;98.42;99790.91;5110259;27;20019;-68
2023/10/22 10:47:41;;;;;;;1.52;1.00;;;;;;;14.98;98.17;99810.28;5108434;28;20080;-68
2023/10/22 10:50:11;;;;;;;1.02;0.80;;;;;;;15.00;98.10;99802.53;5090420;28;20106;-68
2023/10/22 10:52:42;;;;;;;1.65;1.15;;;;;;;14.95;98.29;99802.94;5106734;28;20058;-68
2023/10/22 10:55:14;;;;;;;;;;;;;;;14.99;98.29;99806.41;5078623;28;20039;-68
2023/10/22 10:57:41;;;;;;;0.80;0.75;;;;;;;15.05;98.31;99807.50;5088874;27;19974;-68
2023/10/22 11:00:16;;;;;;;0.93;0.73;;;;;;;14.84;98.70;99810.44;5091462;28;20127;-68
2023/10/22 11:02:47;;;;;;;2.72;1.20;;;;;;;14.84;99.29;99813.94;5112075;27;20035;-68
2023/10/22 11:05:14;;;;;;;2.03;1.15;;;;;;;14.71;99.62;99818.31;5114360;27;20591;-68
2023/10/22 11:07:43;;;;;;;1.67;0.95;;;;;;;14.65;99.79;99813.75;5090477;27;20049;-68
2023/10/22 11:10:14;;;;;;;1.08;0.80;;;;;;;14.67;100.00;99811.41;5108849;27;20059;-68
2023/10/22 11:12:40;;;;;;;1.35;0.98;;;;;;;14.66;100.00;99818.75;5109322;27;20043;-68
2023/10/22 11:15:10;;;;;;;1.20;0.90;;;;;;;14.69;100.00;99822.59;5092703;28;20453;-68
2023/10/22 11:17:46;;;;;;;1.50;1.08;;;;;;;14.77;100.00;99832.22;5110489;27;20039;-68
2023/10/22 11:20:15;;;;;;;1.95;1.15;;;;;;;14.84;100.00;99837.56;5106945;28;20047;-67
2023/10/22 11:22:41;;;;;;;1.33;0.90;;;;;;;14.94;99.99;99837.41;5075735;28;20499;-69
2023/10/22 11:25:09;;;;;;;0.93;0.82;;;;;;;14.99;99.87;99844.34;5108419;28;20032;-68
2023/10/22 11:27:39;;;;;;;0.95;0.75;;;;;;;14.98;99.74;99834.69;5107536;28;20478;-68
2023/10/22 11:30:06;;;;;;;0.80;0.80;;;;;;;14.97;99.75;99841.28;5103871;27;20112;-67
2023/10/22 11:32:35;;;;;;;1.63;0.98;;;;;;;14.88;100.00;99847.19;5090684;28;20031;-68
2023/10/22 11:35:04;;;;;;;1.25;0.80;;;;;;;14.95;100.00;99854.47;5110019;28;20111;-68